Hinckley, MN

11:20 PM CST on December 15, 2019 (GMT -0600)
Hinckley

Weather History for K04W - October, 2019

Change the Weather History Date:

Monday, October 28, 2019

  Actual Average (KJMR) Record (KJMR)
Temperature  
Mean Temperature 30 °F -  
Max Temperature 33 °F 50 °F 73 °F (1948)
Min Temperature 28 °F 25 °F 1 °F (2003)
Degree Days  
Heating Degree Days 34    
Moisture  
Dew Point 21 °F    
Average Humidity 65    
Maximum Humidity 80    
Minimum Humidity 56    
Precipitation  
Precipitation 0.00 in - - ()
Sea Level Pressure  
Sea Level Pressure 30.06 in    
Wind  
Wind Speed 7 mph (WSW)    
Max Wind Speed 13 mph    
Max Gust Speed 17 mph    
Visibility 10 miles    
Events      
Averages and records for this station are not official NWS values.
T = Trace of Precipitation, MM = Missing Value Source: NWS Daily Summary

Daily Weather History Graph

Daily Weather History Graph

Search for Another Location

Airport or City:

Astronomy

Oct. 28, 2019 Rise Set
Actual Time 7:46 AM CDT 6:03 PM CDT
Civil Twilight 7:15 AM CDT 6:34 PM CDT
Nautical Twilight 6:40 AM CDT 7:09 PM CDT
Astronomical Twilight 6:05 AM CDT 7:44 PM CDT
Moon 8:07 AM CDT (10/28) 6:48 PM CDT (10/28)
Length of Visible Light 11h 19m
Length of Day
10h 17m
New Moon, 0% of the Moon is Illuminated
Oct 28
New Moon
Nov 4
First Quarter
Nov 12
Full
Nov 19
Last Quarter
Nov 26
New

Hourly Weather History & Observations

Time (CDT) Temp. Windchill Dew Point Humidity Pressure Visibility Wind Dir Wind Speed Gust Speed Precip Events Conditions
12:15 AM 33.8 °F 26.4 °F 26.6 °F 75% 30.03 in 10.0 mi West 9.2 mph - N/A   Overcast
12:16 AM 33.8 °F 26.4 °F 26.6 °F 75% 30.03 in 10.0 mi West 9.2 mph - N/A   Overcast
12:35 AM 33.8 °F 24.8 °F 24.8 °F 70% 30.03 in 10.0 mi West 12.7 mph 17.3 mph N/A   Overcast
12:36 AM 33.8 °F 25.3 °F 24.8 °F 70% 30.03 in 10.0 mi West 11.5 mph 17.3 mph N/A   Overcast
12:59 AM 33.8 °F 27.7 °F 23.0 °F 65% 30.03 in 10.0 mi WNW 6.9 mph 16.1 mph N/A   Overcast
1:16 AM 33.8 °F 28.6 °F 23.0 °F 65% 30.03 in 10.0 mi West 5.8 mph - N/A   Overcast
1:35 AM 32.0 °F 24.8 °F 23.0 °F 69% 30.04 in 10.0 mi West 8.1 mph - N/A   Overcast
1:36 AM 32.0 °F 24.8 °F 23.0 °F 69% 30.04 in 10.0 mi West 8.1 mph - N/A   Overcast
1:55 AM 32.0 °F 25.6 °F 21.2 °F 64% 30.03 in 10.0 mi West 6.9 mph - N/A   Scattered Clouds
1:56 AM 32.0 °F 25.6 °F 21.2 °F 64% 30.04 in 10.0 mi West 6.9 mph - N/A   Scattered Clouds
2:15 AM 32.0 °F 27.5 °F 21.2 °F 64% 30.05 in 10.0 mi West 4.6 mph - N/A   Clear
2:19 AM 32.0 °F 27.5 °F 21.2 °F 64% 30.05 in 10.0 mi West 4.6 mph - N/A   Clear
2:38 AM 30.2 °F 26.7 °F 21.2 °F 69% 30.05 in 10.0 mi West 3.5 mph - N/A   Clear
2:55 AM 28.4 °F 24.6 °F 23.0 °F 80% 30.04 in 10.0 mi WSW 3.5 mph - N/A   Clear
3:15 AM 28.4 °F 23.3 °F 23.0 °F 80% 30.04 in 10.0 mi West 4.6 mph - N/A   Clear
3:16 AM 28.4 °F 22.2 °F 23.0 °F 80% 30.04 in 10.0 mi West 5.8 mph - N/A   Clear
3:36 AM 28.4 °F 22.2 °F 21.2 °F 74% 30.05 in 10.0 mi West 5.8 mph - N/A   Clear
3:58 AM 28.4 °F 23.3 °F 21.2 °F 74% 30.05 in 10.0 mi WSW 4.6 mph - N/A   Scattered Clouds
4:17 AM 30.2 °F 24.3 °F 23.0 °F 75% 30.05 in 10.0 mi WSW 5.8 mph - N/A   Overcast
4:36 AM 30.2 °F 24.3 °F 21.2 °F 69% 30.05 in 10.0 mi WSW 5.8 mph - N/A   Overcast
4:55 AM 30.2 °F 24.3 °F 21.2 °F 69% 30.02 in 10.0 mi West 5.8 mph - N/A   Overcast
4:56 AM 32.0 °F 26.4 °F 21.2 °F 64% 30.02 in 10.0 mi West 5.8 mph - N/A   Overcast
5:15 AM 32.0 °F 24.2 °F 19.4 °F 60% 30.03 in 10.0 mi West 9.2 mph - N/A   Overcast
5:19 AM 32.0 °F 24.8 °F 19.4 °F 60% 30.03 in 10.0 mi West 8.1 mph - N/A   Overcast
5:37 AM 32.0 °F 24.2 °F 19.4 °F 60% 30.04 in 10.0 mi West 9.2 mph - N/A   Overcast
5:55 AM 32.0 °F 25.6 °F 19.4 °F 60% 30.04 in 10.0 mi West 6.9 mph - N/A   Overcast
6:15 AM 32.0 °F 24.8 °F 19.4 °F 60% 30.04 in 10.0 mi West 8.1 mph - N/A   Overcast
6:16 AM 32.0 °F 24.8 °F 19.4 °F 60% 30.04 in 10.0 mi West 8.1 mph - N/A   Overcast
6:35 AM 32.0 °F 24.2 °F 19.4 °F 60% 30.03 in 10.0 mi West 9.2 mph - N/A   Overcast
6:36 AM 32.0 °F 24.2 °F 19.4 °F 60% 30.04 in 10.0 mi West 9.2 mph - N/A   Overcast
6:58 AM 30.2 °F 23.4 °F 19.4 °F 64% 30.03 in 10.0 mi West 6.9 mph - N/A   Overcast
7:17 AM 30.2 °F 23.4 °F 19.4 °F 64% 30.03 in 10.0 mi West 6.9 mph - N/A   Overcast
7:36 AM 30.2 °F 21.9 °F 19.4 °F 64% 30.05 in 10.0 mi West 9.2 mph - N/A   Overcast
7:55 AM 30.2 °F 22.6 °F 19.4 °F 64% 30.05 in 10.0 mi West 8.1 mph - N/A   Overcast
7:56 AM 30.2 °F 22.6 °F 19.4 °F 64% 30.05 in 10.0 mi West 8.1 mph - N/A   Overcast
8:15 AM 30.2 °F 23.4 °F 19.4 °F 64% 30.05 in 10.0 mi WSW 6.9 mph - N/A   Overcast
8:19 AM 30.2 °F 23.4 °F 19.4 °F 64% 30.06 in 10.0 mi WSW 6.9 mph - N/A   Overcast
8:38 AM 30.2 °F 22.6 °F 21.2 °F 69% 30.06 in 10.0 mi WSW 8.1 mph - N/A   Overcast
8:55 AM 30.2 °F 22.6 °F 19.4 °F 64% 30.06 in 10.0 mi WSW 8.1 mph - N/A   Overcast
9:15 AM 30.2 °F 23.4 °F 19.4 °F 64% 30.06 in 10.0 mi WSW 6.9 mph - N/A   Overcast
9:16 AM 30.2 °F 23.4 °F 19.4 °F 64% 30.06 in 10.0 mi WSW 6.9 mph - N/A   Overcast
9:35 AM 30.2 °F 21.3 °F 19.4 °F 64% 30.07 in 10.0 mi WSW 10.4 mph - N/A   Overcast
9:39 AM 30.2 °F 21.3 °F 19.4 °F 64% 30.07 in 10.0 mi WSW 10.4 mph - N/A   Overcast
9:57 AM 32.0 °F 23.6 °F 21.2 °F 64% 30.08 in 10.0 mi West 10.4 mph - N/A   Overcast
10:15 AM 32.0 °F 24.8 °F 19.4 °F 60% 30.08 in 10.0 mi WSW 8.1 mph - N/A   Overcast
10:35 AM 32.0 °F 23.6 °F 19.4 °F 60% 30.08 in 10.0 mi WSW 10.4 mph - N/A   Overcast
10:36 AM 32.0 °F 23.6 °F 19.4 °F 60% 30.08 in 10.0 mi WSW 10.4 mph - N/A   Overcast
10:55 AM 32.0 °F 24.8 °F 19.4 °F 60% 30.08 in 10.0 mi WSW 8.1 mph - N/A   Overcast
10:56 AM 32.0 °F 25.6 °F 19.4 °F 60% 30.08 in 10.0 mi SW 6.9 mph - N/A   Overcast
11:19 AM 32.0 °F 25.6 °F 21.2 °F 64% 30.07 in 10.0 mi WSW 6.9 mph - N/A   Overcast
11:36 AM 32.0 °F 24.2 °F 19.4 °F 60% 30.07 in 10.0 mi SSW 9.2 mph - N/A   Overcast
11:56 AM 32.0 °F 28.7 °F 19.4 °F 60% 30.08 in 10.0 mi SW 3.5 mph - N/A   Overcast
12:15 PM 32.0 °F 24.2 °F 19.4 °F 60% 30.08 in 10.0 mi WSW 9.2 mph - N/A   Overcast
12:16 PM 32.0 °F 24.2 °F 19.4 °F 60% 30.08 in 10.0 mi WSW 9.2 mph - N/A   Overcast
12:35 PM 32.0 °F 24.8 °F 21.2 °F 64% 30.07 in 10.0 mi WSW 8.1 mph - N/A   Overcast
12:39 PM 32.0 °F 26.4 °F 19.4 °F 60% 30.07 in 10.0 mi WSW 5.8 mph - N/A   Overcast
12:57 PM 32.0 °F 24.2 °F 21.2 °F 64% 30.06 in 10.0 mi WSW 9.2 mph - N/A   Overcast
1:15 PM 32.0 °F 27.5 °F 19.4 °F 60% 30.06 in 10.0 mi West 4.6 mph - N/A   Overcast
1:35 PM 32.0 °F 26.4 °F 19.4 °F 60% 30.06 in 10.0 mi WSW 5.8 mph - N/A   Overcast
1:36 PM 32.0 °F 25.6 °F 21.2 °F 64% 30.06 in 10.0 mi West 6.9 mph - N/A   Overcast
1:55 PM 32.0 °F 26.4 °F 19.4 °F 60% 30.06 in 10.0 mi SW 5.8 mph - N/A   Overcast
1:56 PM 32.0 °F 26.4 °F 19.4 °F 60% 30.06 in 10.0 mi SW 5.8 mph - N/A   Overcast
2:18 PM 33.8 °F 27.0 °F 19.4 °F 56% 30.05 in 10.0 mi SW 8.1 mph - N/A   Overcast
2:37 PM 32.0 °F 28.7 °F 19.4 °F 60% 30.05 in 10.0 mi SW 3.5 mph - N/A   Overcast
2:56 PM 33.8 °F 28.6 °F 19.4 °F 56% 30.04 in 10.0 mi WSW 5.8 mph - N/A   Overcast
3:15 PM 33.8 °F 27.7 °F 19.4 °F 56% 30.05 in 10.0 mi West 6.9 mph - N/A   Overcast
3:35 PM 33.8 °F 27.0 °F 19.4 °F 56% 30.05 in 10.0 mi SSW 8.1 mph - N/A   Mostly Cloudy
3:39 PM 33.8 °F 28.6 °F 19.4 °F 56% 30.04 in 10.0 mi SW 5.8 mph - N/A   Mostly Cloudy
3:57 PM 33.8 °F 26.4 °F 19.4 °F 56% 30.05 in 10.0 mi SSW 9.2 mph - N/A   Mostly Cloudy
4:16 PM 33.8 °F 28.6 °F 19.4 °F 56% 30.05 in 10.0 mi SW 5.8 mph - N/A   Mostly Cloudy
4:35 PM 33.8 °F 28.6 °F 19.4 °F 56% 30.05 in 10.0 mi SSW 5.8 mph - N/A   Overcast
4:36 PM 33.8 °F 27.7 °F 19.4 °F 56% 30.05 in 10.0 mi SSW 6.9 mph - N/A   Overcast
4:59 PM 33.8 °F 29.6 °F 21.2 °F 60% 30.04 in 10.0 mi SSW 4.6 mph - N/A   Overcast
5:16 PM 33.8 °F 30.8 °F 19.4 °F 56% 30.05 in 10.0 mi SSW 3.5 mph - N/A   Overcast
5:35 PM 33.8 °F - 19.4 °F 56% 30.05 in 10.0 mi Calm Calm - N/A   Overcast
5:36 PM 33.8 °F - 19.4 °F 56% 30.05 in 10.0 mi Calm Calm - N/A   Overcast
5:55 PM 32.0 °F - 21.2 °F 64% 30.05 in 10.0 mi Calm Calm - N/A   Overcast
5:56 PM 32.0 °F - 21.2 °F 64% 30.05 in 10.0 mi Calm Calm - N/A   Overcast
6:15 PM 32.0 °F - 21.2 °F 64% 30.05 in 10.0 mi Calm Calm - N/A   Mostly Cloudy
6:19 PM 32.0 °F - 23.0 °F 69% 30.05 in 10.0 mi Calm Calm - N/A   Mostly Cloudy
6:37 PM 32.0 °F - 21.2 °F 64% 30.06 in 10.0 mi Calm Calm - N/A   Scattered Clouds
6:55 PM 32.0 °F 28.7 °F 21.2 °F 64% 30.06 in 10.0 mi SSE 3.5 mph - N/A   Clear
7:15 PM 32.0 °F 27.5 °F 23.0 °F 69% 30.06 in 10.0 mi SSE 4.6 mph - N/A   Clear
7:16 PM 32.0 °F 27.5 °F 23.0 °F 69% 30.07 in 10.0 mi South 4.6 mph - N/A   Clear
7:35 PM 32.0 °F - 23.0 °F 69% 30.07 in 10.0 mi Calm Calm - N/A   Clear
7:36 PM 32.0 °F - 23.0 °F 69% 30.07 in 10.0 mi Calm Calm - N/A   Clear
7:59 PM 32.0 °F 28.7 °F 23.0 °F 69% 30.07 in 10.0 mi SSW 3.5 mph - N/A   Clear
8:16 PM 32.0 °F 27.5 °F 23.0 °F 69% 30.07 in 10.0 mi South 4.6 mph - N/A   Clear
8:35 PM 32.0 °F 28.7 °F 23.0 °F 69% 30.08 in 10.0 mi SW 3.5 mph - N/A   Clear
8:36 PM 32.0 °F 28.7 °F 23.0 °F 69% 30.08 in 10.0 mi SW 3.5 mph - N/A   Clear
8:55 PM 32.0 °F 28.7 °F 23.0 °F 69% 30.07 in 10.0 mi SSW 3.5 mph - N/A   Clear
8:56 PM 32.0 °F 28.7 °F 23.0 °F 69% 30.07 in 10.0 mi SSW 3.5 mph - N/A   Clear
9:15 PM 32.0 °F 28.7 °F 23.0 °F 69% 30.07 in 10.0 mi WSW 3.5 mph - N/A   Clear
9:37 PM 30.2 °F 26.7 °F 23.0 °F 75% 30.08 in 10.0 mi WSW 3.5 mph - N/A   Clear
9:55 PM 30.2 °F - 23.0 °F 75% 30.08 in 10.0 mi Calm Calm - N/A   Clear
10:15 PM 32.0 °F 27.5 °F 21.2 °F 64% 30.08 in 10.0 mi West 4.6 mph - N/A   Clear
10:16 PM 32.0 °F 27.5 °F 21.2 °F 64% 30.08 in 10.0 mi West 4.6 mph - N/A   Clear
10:35 PM 30.2 °F 26.7 °F 21.2 °F 69% 30.08 in 10.0 mi West 3.5 mph - N/A   Clear
10:36 PM 30.2 °F 26.7 °F 21.2 °F 69% 30.08 in 10.0 mi West 3.5 mph - N/A   Clear
10:59 PM 30.2 °F - 21.2 °F 69% 30.07 in 10.0 mi Calm Calm - N/A   Clear
11:16 PM 30.2 °F - 23.0 °F 75% 30.08 in 10.0 mi Calm Calm - N/A   Clear
11:36 PM 30.2 °F 26.7 °F 21.2 °F 69% 30.08 in 10.0 mi WSW 3.5 mph - N/A   Clear
11:55 PM 30.2 °F 26.7 °F 23.0 °F 75% 30.09 in 10.0 mi WSW 3.5 mph - N/A   Clear
11:56 PM 30.2 °F 26.7 °F 23.0 °F 75% 30.09 in 10.0 mi WSW 3.5 mph - N/A   Clear